• Join FlightAware (Why Join?)
  • Login
  • US Flag 
10:50PM EST


 

Airport Tracker/Info


-or-


 

Live Flight TrackerFlight Track Log ✈ RAX1022 ✈ 07-May-2013 ✈ KHKS - KPTK

Flight Track Log - Related Links

Times and Time Zones

All times are in EDT time to prevent confusion due to time zone crossing. See the RAX1022 flight status page for this flight to view local times or setup timezone preferences in your user account.

Time Position Orientation Groundspeed Altitude Reporting Facility
EDT Latitude Longitude Course Direction KTS MPH feet Rate Location/Type
06:26PM 32.5875 -90.0729 23° Northeast  Level FlightAware Approximate
06:27PM 32.6304 -90.0501 25° Northeast  Level FlightAware Approximate
06:28PM 32.6731 -90.0268 25° Northeast  Level FlightAware Approximate
06:28PM 32.6258 -90.0983 25° Northeast 194 223 7,100  Level Memphis Center
06:29PM 32.7158 -90.0035 25° Northeast  Level FlightAware Approximate
06:29PM 32.6736 -90.0736 24° Northeast 194 223 6,900  Level Memphis Center
06:30PM 32.7585 -89.9802 25° Northeast  Level FlightAware Approximate
06:30PM 32.7194 -90.0486 25° Northeast 184 212 6,900  Level Memphis Center
06:31PM 32.8012 -89.9568 25° Northeast  Level FlightAware Approximate
06:31PM 32.7633 -90.0189 30° Northeast 179 206 7,000  Level Memphis Center
06:32PM 32.8438 -89.9333 25° Northeast  Level FlightAware Approximate
06:32PM 32.8050 -89.9889 31° Northeast 174 200 6,900  Level Memphis Center
06:33PM 32.8864 -89.9097 25° Northeast  Level FlightAware Approximate
06:33PM 32.8486 -89.9642 25° Northeast 174 200 6,900  Level Memphis Center
06:34PM 32.8925 -89.9392 26° Northeast 174 200 7,000  Climbing Memphis Center
06:35PM 32.9361 -89.9142 26° Northeast 174 200 7,000  Level Memphis Center
06:36PM 32.9819 -89.8942 20° North 174 200 7,000 -60 Level Memphis Center
06:37PM 33.0281 -89.8767 18° North 174 200 6,900  Descending Memphis Center
06:38PM 33.0717 -89.8514 26° Northeast 168 193 7,000 60 Climbing Memphis Center
06:39PM 33.1133 -89.8264 27° Northeast 168 193 7,100  Climbing Memphis Center
06:40PM 33.1569 -89.8014 26° Northeast 173 199 7,000 -60 Descending Memphis Center
06:41PM 33.2028 -89.7764 25° Northeast 173 199 7,000  Level Memphis Center
06:42PM 33.2467 -89.7511 26° Northeast 173 199 7,000  Level Memphis Center
06:43PM 33.2903 -89.7261 26° Northeast 173 199 7,000  Level Memphis Center
06:44PM 33.3339 -89.7008 26° Northeast 173 199 7,000  Level Memphis Center
06:45PM 33.3797 -89.6756 25° Northeast 173 199 7,100  Climbing Memphis Center
06:46PM 33.4236 -89.6528 23° Northeast 173 199 7,100  Level Memphis Center
06:47PM 33.4672 -89.6275 26° Northeast 173 199 7,100  Level Memphis Center
06:48PM 33.5108 -89.6047 24° Northeast 173 199 7,100  Level Memphis Center
06:49PM 33.5544 -89.5769 28° Northeast 173 199 7,100 -60 Level Memphis Center
06:50PM 33.5981 -89.5517 26° Northeast 173 199 7,000 -120 Descending Memphis Center
06:51PM 33.6439 -89.5239 27° Northeast 173 199 6,900  Descending Memphis Center
06:52PM 33.6917 -89.4958 26° Northeast 173 199 7,000  Climbing Memphis Center
06:53PM 33.7353 -89.4681 28° Northeast 173 199 7,000  Level Memphis Center
06:54PM 33.7789 -89.4425 26° Northeast 173 199 7,000  Level Memphis Center
06:55PM 33.8206 -89.4169 27° Northeast 173 199 7,000  Level Memphis Center
06:56PM 33.8664 -89.3917 25° Northeast 173 199 7,100  Climbing Memphis Center
06:57PM 33.9161 -89.3683 21° North 173 199 7,000  Descending Memphis Center
06:58PM 33.9597 -89.3431 26° Northeast 168 193 7,100  Climbing Memphis Center
06:59PM 34.0033 -89.3200 24° Northeast 173 199 7,000  Descending Memphis Center
07:00PM 34.0492 -89.2917 27° Northeast 173 199 7,100  Climbing Memphis Center
07:01PM 34.0928 -89.2661 26° Northeast 173 199 7,100  Level Memphis Center
07:02PM 34.1342 -89.2406 27° Northeast 173 199 7,200  Climbing Memphis Center
07:03PM 34.1778 -89.2147 26° Northeast 168 193 7,200  Level Memphis Center
07:04PM 34.2214 -89.1917 24° Northeast 168 193 7,200  Level Memphis Center
07:05PM 34.2631 -89.1683 25° Northeast 168 193 7,200 -60 Level Memphis Center
07:06PM 34.3025 -89.1453 26° Northeast 173 199 7,100 -60 Descending Memphis Center
07:07PM 34.3500 -89.1144 28° Northeast 173 199 7,100 -60 Level Memphis Center
07:08PM 34.3936 -89.0886 26° Northeast 173 199 7,000 -60 Descending Memphis Center
07:09PM 34.4331 -89.0678 24° Northeast 173 199 7,000  Level Memphis Center
07:10PM 34.4767 -89.0419 26° Northeast 173 199 7,000  Level Memphis Center
07:11PM 34.5203 -89.0161 26° Northeast 167 192 7,000  Level Memphis Center
07:12PM 34.5617 -88.9928 25° Northeast 167 192 7,000  Level Memphis Center
07:13PM 34.6072 -88.9667 25° Northeast 173 199 7,100  Climbing Memphis Center
07:14PM 34.6508 -88.9408 26° Northeast 173 199 7,100 -60 Level Memphis Center
07:15PM 34.6942 -88.9147 26° Northeast 173 199 7,000 -60 Descending Memphis Center
07:16PM 34.7442 -88.8861 25° Northeast 173 199 7,000  Level Memphis Center
07:17PM 34.7875 -88.8575 28° Northeast 173 199 7,000  Level Memphis Center
07:18PM 34.8311 -88.8342 24° Northeast 173 199 7,000  Level Memphis Center
07:19PM 34.8744 -88.8106 24° Northeast 173 199 7,000  Level Memphis Center
07:20PM 34.9181 -88.7819 28° Northeast 173 199 7,000 -60 Level Memphis Center
07:21PM 34.9636 -88.7581 23° Northeast 173 199 6,900 -60 Descending Memphis Center
07:22PM 35.0050 -88.7344 25° Northeast 168 193 6,900  Level Memphis Center
07:23PM 35.0464 -88.7058 30° Northeast 168 193 7,000 60 Climbing Memphis Center
07:24PM 35.0897 -88.6822 24° Northeast 168 193 7,100  Climbing Memphis Center
07:25PM 35.1311 -88.6558 28° Northeast 168 193 7,100 -60 Level Memphis Center
07:26PM 35.1747 -88.6322 24° Northeast 168 193 7,000 -60 Descending Memphis Center
07:27PM 35.2119 -88.6086 27° Northeast 168 193 7,000  Level Memphis Center
07:28PM 35.2575 -88.5822 25° Northeast 168 193 7,000  Level Memphis Center
07:29PM 35.3008 -88.5558 26° Northeast 168 193 7,000  Level Memphis Center
07:30PM 35.3444 -88.5319 24° Northeast 173 199 7,000  Level Memphis Center
07:31PM 35.3856 -88.5056 28° Northeast 167 192 7,000  Level Memphis Center
07:32PM 35.4292 -88.4792 26° Northeast 167 192 7,000  Level Memphis Center
07:33PM 35.4703 -88.4553 25° Northeast 172 198 7,100  Climbing Memphis Center
07:34PM 35.5136 -88.4261 29° Northeast 172 198 7,000 -60 Descending Memphis Center
07:35PM 35.5550 -88.4022 25° Northeast 172 198 7,000  Level Memphis Center
07:36PM 35.5983 -88.3758 26° Northeast 172 198 7,000  Level Memphis Center
07:37PM 35.6419 -88.3517 24° Northeast 172 198 7,000  Level Memphis Center
07:38PM 35.6831 -88.3278 25° Northeast 172 198 7,000  Level Memphis Center
07:39PM 35.7267 -88.3011 26° Northeast 165 190 7,000  Level Memphis Center
07:40PM 35.7719 -88.2742 26° Northeast 165 190 7,000  Level Memphis Center
07:41PM 35.8111 -88.2528 24° Northeast 160 184 7,100  Climbing Memphis Center
07:42PM 35.8567 -88.2208 30° Northeast 165 190 7,000 -60 Descending Memphis Center
07:43PM 35.8978 -88.1994 23° Northeast 170 196 7,000  Level Memphis Center
07:44PM 35.9433 -88.1700 28° Northeast 170 196 7,100  Climbing Memphis Center
07:45PM 35.9867 -88.1458 24° Northeast 170 196 7,000 -120 Descending Memphis Center
07:46PM 36.0319 -88.1164 28° Northeast 170 196 6,900 -60 Descending Memphis Center
07:47PM 36.0692 -88.0947 25° Northeast 175 201 6,900  Level Memphis Center
07:47PM 36.0814 -88.0892 20° North 173 199 6,900  Level Memphis Center
07:48PM 36.1144 -88.0678 28° Northeast 170 196 6,900 60 Level Memphis Center
07:48PM 36.1289 -88.0569 31° Northeast 170 196 7,000 60 Climbing Memphis Center
07:49PM 36.1558 -88.0433 22° Northeast 170 196 7,000  Level Memphis Center
07:49PM 36.1700 -88.0328 31° Northeast 169 194 7,000  Level Memphis Center
07:50PM 36.1989 -88.0164 25° Northeast 170 196 7,000  Level Memphis Center
07:50PM 36.2133 -88.0058 31° Northeast 171 197 7,000  Level Memphis Center
07:51PM 36.2403 -87.9897 26° Northeast 170 196 7,000  Level Memphis Center
07:51PM 36.2547 -87.9814 25° Northeast 171 197 7,000  Level Memphis Center
07:52PM 36.2856 -87.9625 26° Northeast 170 196 7,000  Level Memphis Center
07:52PM 36.2978 -87.9544 28° Northeast 171 197 7,000 -120 Level Memphis Center
07:53PM 36.3331 -87.9353 24° Northeast 170 196 6,900 -120 Descending Memphis Center
07:53PM 36.3392 -87.9300 35° Northeast 172 198 6,900  Level Memphis Center
07:54PM 36.3761 -87.9083 25° Northeast 170 196 6,900  Level Memphis Center
07:54PM 36.3886 -87.9028 20° North 174 200 6,900  Level Memphis Center
07:55PM 36.4172 -87.8786 34° Northeast 170 196 6,900  Level Memphis Center
07:55PM 36.4256 -87.8783 North 174 200 6,900  Level Memphis Center
07:56PM 36.4650 -87.8669 13° North 170 196 6,900 60 Level Memphis Center
07:56PM 36.4733 -87.8667 North 169 194 7,000 60 Climbing Memphis Center
07:57PM 36.5086 -87.8553 15° North 164 189 7,000 -120 Level Memphis Center
07:57PM 36.5253 -87.8547 North 170 196 6,900 -120 Descending Memphis Center
07:58PM 36.5564 -87.8486 North 164 189 6,900  Level Memphis Center
07:58PM 36.5750 -87.8506 355° North 171 197 6,900 60 Level Memphis Center
07:59PM 36.6042 -87.8472 North 159 183 7,000 60 Climbing Memphis Center
07:59PM 36.6208 -87.8467 North 171 197 7,000  Level Memphis Center
08:00PM 36.6522 -87.8456 North 159 183 7,000  Level Memphis Center
08:00PM 36.6708 -87.8450 North 173 199 7,000 -120 Level Memphis Center
08:01PM 36.6936 -87.8392 12° North 159 183 6,900  Descending Memphis Center
08:01PM 36.7228 -87.8383 North 173 199 7,000  Climbing Memphis Center
08:02PM 36.7683 -87.8136 23° Northeast 179 206 6,900 -60 Descending Memphis Center
08:03PM 36.8094 -87.7914 23° Northeast 177 204 6,900  Level Memphis Center
08:04PM 36.8586 -87.7561 30° Northeast 176 203 6,900  Level Memphis Center
08:05PM 36.8997 -87.7289 28° Northeast 176 203 6,900  Level Memphis Center
08:06PM 36.9431 -87.7014 27° Northeast 175 201 7,000  Climbing Memphis Center
08:07PM 36.9861 -87.6742 27° Northeast 173 199 7,000 -60 Level Memphis Center
08:09PM 37.0314 -87.6467 26° Northeast 171 197 6,900  Descending Memphis Center
08:09PM 37.0703 -87.6192 29° Northeast 170 196 7,000  Climbing Memphis Center
08:10PM 37.1136 -87.5892 29° Northeast 170 196 7,000 -60 Level Memphis Center
08:13PM 37.2156 -87.5217 28° Northeast 171 197 6,900 -60 Descending Indianapolis Center
08:14PM 37.2631 -87.4897 28° Northeast 171 197 6,900  Level Indianapolis Center
08:15PM 37.3053 -87.4631 27° Northeast 169 194 7,000  Climbing Indianapolis Center
08:16PM 37.3461 -87.4344 29° Northeast 168 193 7,000 -60 Level Indianapolis Center
08:17PM 37.3889 -87.4069 27° Northeast 171 197 6,900 -60 Descending Indianapolis Center
08:18PM 37.4308 -87.3775 29° Northeast 171 197 6,900  Level Indianapolis Center
08:19PM 37.4731 -87.3519 26° Northeast 169 194 6,900  Level Indianapolis Center
08:20PM 37.5156 -87.3233 28° Northeast 172 198 6,900 -60 Level Indianapolis Center
08:21PM 37.5589 -87.2953 27° Northeast 174 200 6,800  Descending Indianapolis Center
08:22PM 37.6097 -87.2600 29° Northeast 173 199 6,900 60 Climbing Indianapolis Center
08:23PM 37.6525 -87.2322 27° Northeast 173 199 7,000  Climbing Indianapolis Center
08:24PM 37.6936 -87.2039 29° Northeast 171 197 7,000  Level Indianapolis Center
08:25PM 37.7361 -87.1758 28° Northeast 171 197 7,000 -60 Level Indianapolis Center
08:26PM 37.7783 -87.1467 29° Northeast 172 198 6,900 -60 Descending Indianapolis Center
08:27PM 37.8208 -87.1194 27° Northeast 171 197 6,900  Level Indianapolis Center
08:28PM 37.8633 -87.0911 28° Northeast 172 198 6,900  Level Indianapolis Center
08:29PM 37.9058 -87.0631 28° Northeast 172 198 6,900  Level Indianapolis Center
08:30PM 37.9569 -87.0292 28° Northeast 172 198 6,900  Level Indianapolis Center
08:31PM 37.9986 -86.9994 29° Northeast 172 198 6,900  Level Indianapolis Center
08:33PM 38.0414 -86.9717 27° Northeast 173 199 7,000  Climbing Indianapolis Center
08:34PM 38.0825 -86.9436 28° Northeast 169 194 7,000  Level Indianapolis Center
08:35PM 38.1236 -86.9147 29° Northeast 169 194 7,000  Level Indianapolis Center
08:36PM 38.1656 -86.8867 28° Northeast 171 197 7,000  Level Indianapolis Center
08:37PM 38.2069 -86.8586 28° Northeast 170 196 7,000  Level Indianapolis Center
08:38PM 38.2578 -86.8247 28° Northeast 171 197 7,000 -60 Level Indianapolis Center
08:39PM 38.2994 -86.7958 29° Northeast 171 197 6,900 -60 Descending Indianapolis Center
08:40PM 38.3414 -86.7683 27° Northeast 170 196 6,900  Level Indianapolis Center
08:41PM 38.3833 -86.7386 29° Northeast 172 198 6,900  Level Indianapolis Center
08:42PM 38.4247 -86.7117 27° Northeast 169 194 7,000  Climbing Indianapolis Center
08:43PM 38.4669 -86.6833 28° Northeast 170 196 7,000  Level Indianapolis Center
08:44PM 38.5089 -86.6544 28° Northeast 170 196 7,000  Level Indianapolis Center
08:45PM 38.5514 -86.6256 28° Northeast 172 198 7,000 -60 Level Indianapolis Center
08:46PM 38.6022 -86.5894 29° Northeast 173 199 6,900  Descending Indianapolis Center
08:47PM 38.6444 -86.5608 28° Northeast 172 198 7,000  Climbing Indianapolis Center
08:48PM 38.6869 -86.5314 28° Northeast 173 199 7,000  Level Indianapolis Center
08:49PM 38.7294 -86.5019 28° Northeast 173 199 7,000  Level Indianapolis Center
08:50PM 38.7714 -86.4733 28° Northeast 172 198 7,000  Level Indianapolis Center
08:51PM 38.8139 -86.4433 29° Northeast 172 198 7,000  Level Indianapolis Center
08:52PM 38.8564 -86.4147 28° Northeast 173 199 7,000  Level Indianapolis Center
08:53PM 38.9058 -86.3822 27° Northeast 173 199 7,000  Level Indianapolis Center
08:54PM 38.9481 -86.3519 29° Northeast 174 200 7,000  Level Indianapolis Center
08:55PM 38.9906 -86.3219 29° Northeast 174 200 7,000 -60 Level Indianapolis Center
08:56PM 39.0319 -86.2928 29° Northeast 173 199 6,900 -60 Descending Indianapolis Center
08:57PM 39.0758 -86.2633 28° Northeast 176 203 6,900  Level Indianapolis Center
08:58PM 39.1186 -86.2339 28° Northeast 176 203 6,900  Level Indianapolis Center
08:59PM 39.1600 -86.2047 29° Northeast 172 198 6,900  Level Indianapolis Center
09:01PM 39.2442 -86.1450 29° Northeast 174 200 6,900  Level Chicago Center
09:02PM 39.2856 -86.1156 29° Northeast 174 200 6,900  Level Chicago Center
09:03PM 39.3278 -86.0858 29° Northeast 173 199 6,900  Level Chicago Center
09:04PM 39.3725 -86.0717 14° North 174 200 6,900  Level Chicago Center
09:05PM 39.4314 -86.0783 355° North 174 200 6,900  Level Indianapolis Center
09:06PM 39.4786 -86.0844 354° North 172 198 7,000 60 Climbing Indianapolis Center
09:07PM 39.5264 -86.0906 354° North 172 198 7,100  Climbing Indianapolis Center
09:08PM 39.5839 -86.0972 355° North 174 200 7,000 -60 Descending Indianapolis Center
09:09PM 39.6319 -86.1039 354° North 174 200 7,000  Level Indianapolis Center
09:10PM 39.6803 -86.1117 353° North 175 201 7,000  Level Indianapolis Center
09:11PM 39.7292 -86.1186 354° North 178 205 7,000 -60 Level Indianapolis Center
09:12PM 39.7775 -86.1267 353° North 178 205 6,900  Descending Indianapolis Center
09:13PM 39.8167 -86.1333 353° North 176 203 7,000  Climbing Indianapolis TRACON
09:14PM 39.8667 -86.1333 360° North 174 200 7,000 -60 Level Indianapolis TRACON
09:15PM 39.9167 -86.1333 360° North 177 204 6,900  Descending Indianapolis TRACON
09:16PM 39.9322 -86.1436 333° Northwest 176 203 7,000 60 Climbing Chicago Center
09:17PM 39.9817 -86.1481 356° North 178 205 7,000 -60 Level Chicago Center
09:18PM 40.0294 -86.1531 355° North 176 203 6,900  Descending Chicago Center
09:19PM 40.0753 -86.1394 13° North 181 208 7,000  Climbing Chicago Center
09:20PM 40.1108 -86.1011 40° Northeast 171 197 7,000  Level Indianapolis Center
09:21PM 40.1481 -86.0581 41° Northeast 175 201 7,000  Level Chicago Center
09:22PM 40.1922 -86.0075 41° Northeast 177 204 7,000  Level Chicago Center
09:23PM 40.2231 -85.9708 42° Northeast 176 203 7,000  Level Chicago Center
09:24PM 40.2639 -85.9347 34° Northeast 178 205 7,100 -60 Climbing Chicago Center
09:25PM 40.3094 -85.8972 32° Northeast 178 205 6,900 -60 Descending Chicago Center
09:26PM 40.3433 -85.8597 40° Northeast 177 204 7,000  Climbing Chicago Center
09:27PM 40.3858 -85.8142 39° Northeast 180 207 6,900  Descending Chicago Center
09:28PM 40.4244 -85.7739 38° Northeast 180 207 7,100 120 Climbing Chicago Center
09:29PM 40.4700 -85.7256 39° Northeast 178 205 7,200 -60 Climbing Chicago Center
09:30PM 40.5106 -85.6875 36° Northeast 178 205 7,000 -180 Descending Chicago Center
09:31PM 40.5486 -85.6458 40° Northeast 180 207 6,900  Descending Chicago Center
09:32PM 40.5881 -85.6056 38° Northeast 179 206 7,000  Climbing Chicago Center
09:33PM 40.6264 -85.5683 36° Northeast 175 201 6,900  Descending Chicago Center
09:34PM 40.6642 -85.5267 40° Northeast 174 200 7,000  Climbing Chicago Center
09:35PM 40.7036 -85.4853 38° Northeast 178 205 7,000  Level Chicago Center
09:36PM 40.7411 -85.4447 39° Northeast 177 204 7,000  Level Chicago Center
09:37PM 40.7878 -85.3964 38° Northeast 178 205 7,100  Climbing Chicago Center
09:38PM 40.8264 -85.3544 39° Northeast 179 206 7,100  Level Chicago Center
09:39PM 40.8656 -85.3153 37° Northeast 178 205 7,100  Level Chicago Center
09:40PM 40.9047 -85.2758 37° Northeast 178 205 7,100  Level Chicago Center
09:41PM 40.9425 -85.2344 40° Northeast 177 204 7,100  Level Chicago Center
09:42PM 40.9831 -85.1953 36° Northeast 180 207 7,100  Level Chicago Center
09:43PM 41.0222 -85.1536 39° Northeast 180 207 7,100  Level Chicago Center
09:44PM 41.0617 -85.1128 38° Northeast 180 207 7,100  Level Chicago Center
09:45PM 41.1092 -85.0636 38° Northeast 181 208 7,100  Level Chicago Center
09:46PM 41.1483 -85.0211 39° Northeast 182 209 7,100  Level Chicago Center
09:47PM 41.1883 -84.9808 37° Northeast 182 209 7,100  Level Chicago Center
09:48PM 41.2275 -84.9392 39° Northeast 181 208 7,100 -60 Level Chicago Center
09:49PM 41.2661 -84.8972 39° Northeast 181 208 7,000 -60 Descending Chicago Center
09:50PM 41.3064 -84.8561 37° Northeast 181 208 7,000  Level Chicago Center
09:51PM 41.3456 -84.8136 39° Northeast 182 209 7,000  Level Chicago Center
09:52PM 41.3939 -84.7636 38° Northeast 183 211 7,000  Level Chicago Center
09:54PM 41.4336 -84.7206 39° Northeast 184 212 7,000 -60 Level Chicago Center
09:55PM 41.4739 -84.6789 38° Northeast 184 212 6,900  Descending Chicago Center
09:56PM 41.5136 -84.6364 39° Northeast 184 212 7,000  Climbing Chicago Center
09:57PM 41.5533 -84.5936 39° Northeast 184 212 7,000 -60 Level Chicago Center
09:58PM 41.5928 -84.5508 39° Northeast 183 211 6,900  Descending Chicago Center
09:59PM 41.6319 -84.5097 38° Northeast 182 209 7,000  Climbing Chicago Center
10:00PM 41.6711 -84.4658 40° Northeast 183 211 7,000  Level Chicago Center
10:01PM 41.7117 -84.4264 36° Northeast 182 209 7,100  Climbing Chicago Center
10:02PM 41.7597 -84.3758 38° Northeast 183 211 7,000 -60 Descending Chicago Center
10:03PM 41.7992 -84.3328 39° Northeast 183 211 7,000  Level Chicago Center
10:03PM 41.8094 -84.3219 38° Northeast 183 211 7,000  Level Cleveland Center
10:04PM 41.8333 -84.2928 42° Northeast 183 211 7,000  Level Cleveland Center